createdAt,value
2023-04-28T00:03:14.435Z,73.29
2023-04-28T00:08:17.265Z,76.55
2023-04-28T00:13:19.891Z,73.71
2023-04-28T00:18:23.173Z,69.73
2023-04-28T00:23:25.965Z,68.78
2023-04-28T00:33:34.666Z,68.18
2023-04-28T00:38:37.332Z,72.79
2023-04-28T00:43:47.806Z,78.56
2023-04-28T00:48:50.723Z,82.07
2023-04-28T00:53:54.065Z,84.75
2023-04-28T00:58:56.674Z,74.37
2023-04-28T01:03:59.640Z,75.31
2023-04-28T01:09:01.844Z,71.77
2023-04-28T01:14:04.823Z,75.69
2023-04-28T01:19:19.951Z,72.05
2023-04-28T01:24:22.696Z,80.49
2023-04-28T01:29:26.005Z,97.93
2023-04-28T01:34:29.444Z,100.00
2023-04-28T01:39:32.098Z,100.00
2023-04-28T01:44:35.253Z,100.00
2023-04-28T01:49:37.866Z,100.00
2023-04-28T01:54:43.736Z,100.00
2023-04-28T01:59:46.386Z,100.00
2023-04-28T02:04:49.076Z,100.00
2023-04-28T02:09:51.697Z,100.00
2023-04-28T02:14:54.260Z,100.00
2023-04-28T02:19:57.146Z,100.00
2023-04-28T02:24:59.685Z,100.00
2023-04-28T02:30:02.992Z,100.00
2023-04-28T02:35:06.029Z,100.00
2023-04-28T02:40:08.871Z,100.00
2023-04-28T02:45:12.202Z,100.00
2023-04-28T02:50:15.512Z,100.00
2023-04-28T02:55:24.337Z,100.00
2023-04-28T03:00:28.470Z,100.00
2023-04-28T03:05:31.314Z,100.00
2023-04-28T03:10:33.903Z,100.00
2023-04-28T03:15:37.083Z,100.00
2023-04-28T03:20:39.902Z,100.00
2023-04-28T03:25:42.524Z,100.00
2023-04-28T03:30:45.369Z,100.00
2023-04-28T03:35:48.118Z,100.00
2023-04-28T03:40:50.565Z,100.00
2023-04-28T03:45:56.266Z,100.00
2023-04-28T03:51:01.302Z,100.00
2023-04-28T03:56:04.013Z,100.00
2023-04-28T04:01:06.989Z,100.00
2023-04-28T04:06:09.500Z,100.00
2023-04-28T04:11:12.188Z,100.00
2023-04-28T04:16:18.002Z,100.00
2023-04-28T04:21:20.780Z,100.00
2023-04-28T04:26:26.026Z,100.00
2023-04-28T04:31:30.174Z,100.00
2023-04-28T04:36:33.227Z,100.00
2023-04-28T04:41:36.497Z,100.00
2023-04-28T04:47:02.977Z,100.00
2023-04-28T04:52:07.392Z,100.00
2023-04-28T04:57:11.989Z,100.00
2023-04-28T05:02:32.510Z,100.00
2023-04-28T05:07:36.922Z,100.00
2023-04-28T05:12:39.830Z,100.00
2023-04-28T05:17:42.706Z,98.36
2023-04-28T05:22:45.066Z,93.46
2023-04-28T05:27:48.284Z,85.90
2023-04-28T05:32:50.699Z,85.15
2023-04-28T05:37:53.545Z,77.85
2023-04-28T05:42:56.056Z,82.13
2023-04-28T05:47:58.654Z,75.10
2023-04-28T05:53:01.317Z,72.96
2023-04-28T05:58:04.756Z,69.19
2023-04-28T06:03:11.616Z,67.17
2023-04-28T06:08:14.672Z,64.30
2023-04-28T06:13:17.429Z,68.67
2023-04-28T06:18:20.090Z,71.05
2023-04-28T06:23:22.773Z,70.52
2023-04-28T06:28:26.712Z,70.81
2023-04-28T06:33:29.429Z,68.43
2023-04-28T06:38:32.140Z,68.13
2023-04-28T06:43:35.188Z,68.18
2023-04-28T06:48:43.679Z,59.15
2023-04-28T06:53:45.810Z,57.85
2023-04-28T06:58:48.476Z,62.11
2023-04-28T07:03:51.120Z,56.76
2023-04-28T07:08:54.322Z,57.58
2023-04-28T07:13:56.597Z,54.07
2023-04-28T07:18:59.240Z,58.77
2023-04-28T07:24:02.248Z,54.75
2023-04-28T07:29:04.960Z,53.24
2023-04-28T07:34:07.510Z,55.54
2023-04-28T07:39:10.126Z,56.16
2023-04-28T07:44:12.927Z,58.11
2023-04-28T07:49:15.409Z,54.95
2023-04-28T07:54:18.460Z,52.94
2023-04-28T07:59:21.500Z,52.73
2023-04-28T08:04:24.408Z,51.45
2023-04-28T08:09:27.483Z,50.19
2023-04-28T08:14:29.781Z,47.17
2023-04-28T08:19:32.414Z,46.19
2023-04-28T08:24:34.790Z,46.81
2023-04-28T08:29:37.715Z,46.87
2023-04-28T08:34:40.349Z,44.45
2023-04-28T08:39:42.487Z,44.63
2023-04-28T08:44:46.420Z,41.02
2023-04-28T08:49:49.874Z,40.15
2023-04-28T08:54:52.984Z,37.48
2023-04-28T08:59:57.313Z,36.64
2023-04-28T09:04:59.758Z,40.56
2023-04-28T09:10:26.767Z,38.85
2023-04-28T09:15:37.772Z,37.42
2023-04-28T09:20:40.461Z,39.14
2023-04-28T09:26:03.242Z,39.10
2023-04-28T09:31:05.963Z,38.15
2023-04-28T09:36:08.880Z,36.12
2023-04-28T09:41:11.600Z,36.25
2023-04-28T09:46:29.977Z,36.86
2023-04-28T09:51:32.794Z,34.87
2023-04-28T09:56:41.917Z,35.94
2023-04-28T10:01:45.381Z,36.63
2023-04-28T10:06:48.580Z,37.68
2023-04-28T10:11:51.568Z,40.98
2023-04-28T10:16:55.161Z,38.70
2023-04-28T10:22:18.914Z,39.46
2023-04-28T10:27:22.058Z,37.85
2023-04-28T10:32:29.476Z,38.05
2023-04-28T10:38:05.971Z,35.68
2023-04-28T10:43:10.514Z,34.90
2023-04-28T10:48:13.244Z,36.07
2023-04-28T10:53:15.312Z,35.13
2023-04-28T10:58:20.589Z,34.95
2023-04-28T11:03:49.509Z,33.99
2023-04-28T11:08:52.288Z,34.73
2023-04-28T11:14:22.494Z,37.17
2023-04-28T11:19:26.885Z,38.82
2023-04-28T11:24:31.242Z,40.20
2023-04-28T11:29:43.088Z,41.05
2023-04-28T11:34:52.580Z,39.21
2023-04-28T11:39:55.450Z,36.22
2023-04-28T11:44:58.009Z,36.70
2023-04-28T11:50:01.750Z,38.50
2023-04-28T11:55:05.211Z,40.19
2023-04-28T12:00:19.766Z,40.72
2023-04-28T12:05:22.866Z,39.49
2023-04-28T12:10:25.630Z,37.43
2023-04-28T12:15:41.700Z,39.06
2023-04-28T12:20:44.442Z,37.59
2023-04-28T12:25:48.582Z,39.05
2023-04-28T12:30:51.276Z,38.69
2023-04-28T12:35:57.962Z,40.24
2023-04-28T12:41:01.207Z,38.63
2023-04-28T12:46:04.602Z,38.34
2023-04-28T12:51:07.279Z,39.56
2023-04-28T12:56:10.524Z,40.83
2023-04-28T13:01:13.683Z,40.23
2023-04-28T13:06:16.466Z,39.87
2023-04-28T13:11:22.615Z,41.09
2023-04-28T13:16:29.017Z,41.56
2023-04-28T13:21:32.165Z,40.64
2023-04-28T13:26:34.812Z,42.07
2023-04-28T13:31:37.482Z,40.90
2023-04-28T13:36:40.112Z,40.75
2023-04-28T13:41:42.973Z,41.65
2023-04-28T13:46:46.305Z,42.88
2023-04-28T13:51:48.857Z,43.19
2023-04-28T13:56:51.527Z,43.24
2023-04-28T14:01:54.087Z,43.57
2023-04-28T14:06:56.829Z,43.38
2023-04-28T14:11:59.410Z,44.52
2023-04-28T14:17:04.947Z,45.85
2023-04-28T14:22:07.705Z,45.42
2023-04-28T14:27:10.410Z,45.22
2023-04-28T14:32:13.820Z,45.60
2023-04-28T14:37:16.615Z,45.86
2023-04-28T14:42:20.313Z,46.67
2023-04-28T14:47:23.355Z,47.37
2023-04-28T14:52:30.743Z,46.89
2023-04-28T14:57:34.873Z,47.57
2023-04-28T15:02:37.928Z,48.08
2023-04-28T15:07:40.725Z,46.99
2023-04-28T15:12:43.501Z,47.33
2023-04-28T15:17:46.127Z,49.18
2023-04-28T15:22:48.930Z,54.86
2023-04-28T15:27:53.017Z,49.21
2023-04-28T15:32:55.724Z,48.21
2023-04-28T15:37:58.381Z,50.64
2023-04-28T15:43:00.882Z,50.08
2023-04-28T15:48:05.242Z,49.22
2023-04-28T15:53:08.388Z,49.24
2023-04-28T15:58:11.172Z,48.65
2023-04-28T16:03:13.887Z,50.41
2023-04-28T16:08:16.585Z,49.96
2023-04-28T16:13:19.673Z,51.71
2023-04-28T16:18:22.048Z,63.54
2023-04-28T16:23:25.015Z,59.29
2023-04-28T16:28:27.834Z,54.71
2023-04-28T16:33:30.872Z,53.88
2023-04-28T16:38:33.427Z,56.31
2023-04-28T16:43:38.357Z,55.46
2023-04-28T16:48:40.992Z,54.51
2023-04-28T16:53:43.230Z,60.00
2023-04-28T16:58:45.841Z,58.44
2023-04-28T17:03:51.168Z,64.79
2023-04-28T17:08:54.062Z,67.31
2023-04-28T17:13:57.252Z,67.54
2023-04-28T17:19:00.553Z,73.25
2023-04-28T17:24:03.146Z,73.07
2023-04-28T17:29:06.009Z,76.54
2023-04-28T17:34:08.593Z,77.83
2023-04-28T17:39:12.728Z,80.95
2023-04-28T17:44:16.947Z,84.70
2023-04-28T17:49:19.514Z,87.03
2023-04-28T17:54:22.114Z,87.68
2023-04-28T17:59:24.693Z,90.75
2023-04-28T18:04:27.316Z,90.20
2023-04-28T18:09:31.969Z,93.80
2023-04-28T18:14:34.541Z,94.38
2023-04-28T18:19:37.176Z,93.16
2023-04-28T18:24:39.824Z,94.92
2023-04-28T18:29:42.015Z,96.72
2023-04-28T18:34:44.655Z,97.69
2023-04-28T18:39:47.215Z,98.49
2023-04-28T18:44:54.398Z,100.00
2023-04-28T18:49:57.008Z,100.00
2023-04-28T18:54:59.974Z,100.00
2023-04-28T19:00:02.047Z,100.00
2023-04-28T19:05:06.025Z,100.00
2023-04-28T19:10:09.236Z,100.00
2023-04-28T19:15:11.336Z,100.00
2023-04-28T19:20:13.794Z,100.00
2023-04-28T19:25:16.875Z,100.00
2023-04-28T19:30:19.452Z,100.00
2023-04-28T19:35:21.851Z,100.00
2023-04-28T19:40:26.480Z,100.00
2023-04-28T19:45:28.944Z,100.00
2023-04-28T19:50:31.931Z,100.00
2023-04-28T19:55:34.467Z,100.00
2023-04-28T20:00:37.386Z,100.00
2023-04-28T20:05:40.217Z,100.00
2023-04-28T20:10:43.029Z,100.00
2023-04-28T20:15:45.603Z,100.00
2023-04-28T20:20:56.311Z,100.00
2023-04-28T20:25:59.647Z,100.00
2023-04-28T20:31:02.227Z,100.00
2023-04-28T20:36:05.781Z,100.00
2023-04-28T20:41:08.897Z,100.00
2023-04-28T20:46:13.709Z,100.00
2023-04-28T20:51:17.027Z,100.00
2023-04-28T20:56:19.673Z,100.00
2023-04-28T21:01:22.353Z,100.00
2023-04-28T21:06:24.679Z,100.00
2023-04-28T21:11:27.387Z,100.00
2023-04-28T21:16:33.185Z,100.00
2023-04-28T21:21:35.831Z,100.00
2023-04-28T21:26:38.532Z,100.00
2023-04-28T21:31:44.549Z,100.00
2023-04-28T21:36:47.378Z,100.00
2023-04-28T21:41:49.952Z,100.00
2023-04-28T21:46:52.845Z,100.00
2023-04-28T21:51:55.472Z,100.00
2023-04-28T21:56:58.041Z,100.00
2023-04-28T22:02:03.391Z,100.00
2023-04-28T22:07:06.721Z,100.00
2023-04-28T22:12:09.474Z,100.00
2023-04-28T22:17:12.223Z,100.00
2023-04-28T22:22:14.821Z,100.00
2023-04-28T22:27:17.857Z,100.00
2023-04-28T22:32:20.188Z,100.00
2023-04-28T22:37:22.864Z,100.00
2023-04-28T22:42:24.971Z,100.00
2023-04-28T22:47:27.515Z,100.00
2023-04-28T22:52:30.141Z,100.00
2023-04-28T22:57:32.839Z,100.00
2023-04-28T23:02:35.096Z,100.00
2023-04-28T23:07:37.658Z,100.00
2023-04-28T23:12:40.277Z,100.00
2023-04-28T23:17:43.921Z,100.00
2023-04-28T23:22:46.268Z,100.00
2023-04-28T23:27:49.338Z,100.00
2023-04-28T23:32:51.749Z,100.00
2023-04-28T23:37:54.424Z,100.00
2023-04-28T23:42:57.092Z,100.00
2023-04-28T23:47:59.917Z,100.00
2023-04-28T23:53:02.811Z,100.00
2023-04-28T23:58:05.350Z,100.00
